sensor_id;sensor_type;location;lat;lon;timestamp;pressure;altitude;pressure_sealevel;temperature;humidity
3102;BME280;1561;42.666;23.392;2023-07-20T00:00:40;94803.47;;;24.01;100.00
3102;BME280;1561;42.666;23.392;2023-07-20T00:03:14;94901.81;;;24.49;100.00
3102;BME280;1561;42.666;23.392;2023-07-20T00:05:44;94902.56;;;24.32;100.00
3102;BME280;1561;42.666;23.392;2023-07-20T00:08:15;94892.38;;;24.24;100.00
3102;BME280;1561;42.666;23.392;2023-07-20T00:10:44;94884.00;;;23.97;100.00
3102;BME280;1561;42.666;23.392;2023-07-20T00:13:12;94907.75;;;24.14;100.00
3102;BME280;1561;42.666;23.392;2023-07-20T00:15:41;94902.31;;;23.91;100.00
3102;BME280;1561;42.666;23.392;2023-07-20T00:18:09;94836.16;;;23.16;100.00
3102;BME280;1561;42.666;23.392;2023-07-20T00:20:36;94892.06;;;23.58;100.00
3102;BME280;1561;42.666;23.392;2023-07-20T00:23:05;94883.31;;;23.46;100.00
3102;BME280;1561;42.666;23.392;2023-07-20T00:25:52;94833.66;;;22.90;100.00
3102;BME280;1561;42.666;23.392;2023-07-20T00:28:20;94904.25;;;23.33;100.00
3102;BME280;1561;42.666;23.392;2023-07-20T00:30:47;94886.69;;;23.15;100.00
3102;BME280;1561;42.666;23.392;2023-07-20T00:33:17;94875.53;;;22.95;100.00
3102;BME280;1561;42.666;23.392;2023-07-20T00:35:45;94794.63;;;22.27;100.00
3102;BME280;1561;42.666;23.392;2023-07-20T00:38:13;94882.84;;;22.74;100.00
3102;BME280;1561;42.666;23.392;2023-07-20T00:40:43;94890.06;;;22.65;100.00
3102;BME280;1561;42.666;23.392;2023-07-20T00:43:11;94895.81;;;22.87;100.00
3102;BME280;1561;42.666;23.392;2023-07-20T00:45:39;94884.44;;;22.68;100.00
3102;BME280;1561;42.666;23.392;2023-07-20T00:48:09;94877.09;;;22.39;100.00
3102;BME280;1561;42.666;23.392;2023-07-20T00:50:36;94883.31;;;22.32;100.00
3102;BME280;1561;42.666;23.392;2023-07-20T00:53:06;94872.13;;;22.18;100.00
3102;BME280;1561;42.666;23.392;2023-07-20T00:55:33;94872.34;;;22.10;100.00
3102;BME280;1561;42.666;23.392;2023-07-20T00:58:00;94864.69;;;22.28;100.00
3102;BME280;1561;42.666;23.392;2023-07-20T01:00:33;94862.94;;;22.16;100.00
3102;BME280;1561;42.666;23.392;2023-07-20T01:03:01;94860.94;;;22.05;100.00
3102;BME280;1561;42.666;23.392;2023-07-20T01:05:42;94871.13;;;22.19;100.00
3102;BME280;1561;42.666;23.392;2023-07-20T01:08:18;94874.72;;;22.25;100.00
3102;BME280;1561;42.666;23.392;2023-07-20T01:10:57;94882.75;;;21.97;100.00
3102;BME280;1561;42.666;23.392;2023-07-20T01:13:26;94876.72;;;22.03;100.00
3102;BME280;1561;42.666;23.392;2023-07-20T01:16:06;94893.97;;;21.91;100.00
3102;BME280;1561;42.666;23.392;2023-07-20T01:18:36;94897.16;;;21.87;100.00
3102;BME280;1561;42.666;23.392;2023-07-20T01:24:18;94892.38;;;21.71;100.00
3102;BME280;1561;42.666;23.392;2023-07-20T01:27:05;94889.75;;;21.71;100.00
3102;BME280;1561;42.666;23.392;2023-07-20T01:30:06;94875.72;;;21.52;100.00
3102;BME280;1561;42.666;23.392;2023-07-20T01:32:44;94873.06;;;21.26;100.00
3102;BME280;1561;42.666;23.392;2023-07-20T01:35:13;94889.03;;;21.30;100.00
3102;BME280;1561;42.666;23.392;2023-07-20T01:37:47;94785.94;;;20.64;100.00
3102;BME280;1561;42.666;23.392;2023-07-20T01:40:15;94883.47;;;21.33;100.00
3102;BME280;1561;42.666;23.392;2023-07-20T01:42:45;94897.06;;;21.35;100.00
3102;BME280;1561;42.666;23.392;2023-07-20T01:45:13;94886.06;;;21.26;100.00
3102;BME280;1561;42.666;23.392;2023-07-20T01:47:41;94881.69;;;21.40;100.00
3102;BME280;1561;42.666;23.392;2023-07-20T01:50:12;94855.66;;;21.14;100.00
3102;BME280;1561;42.666;23.392;2023-07-20T01:52:39;94874.84;;;21.32;100.00
3102;BME280;1561;42.666;23.392;2023-07-20T01:55:08;94877.09;;;21.48;100.00
3102;BME280;1561;42.666;23.392;2023-07-20T01:57:34;94870.31;;;21.54;100.00
3102;BME280;1561;42.666;23.392;2023-07-20T02:00:04;94878.06;;;21.34;100.00
3102;BME280;1561;42.666;23.392;2023-07-20T02:02:36;94866.72;;;21.55;100.00
3102;BME280;1561;42.666;23.392;2023-07-20T02:05:07;94869.94;;;21.70;100.00
3102;BME280;1561;42.666;23.392;2023-07-20T02:07:35;94854.53;;;21.75;100.00
3102;BME280;1561;42.666;23.392;2023-07-20T02:10:02;94867.91;;;21.65;100.00
3102;BME280;1561;42.666;23.392;2023-07-20T02:12:31;94769.91;;;20.94;100.00
3102;BME280;1561;42.666;23.392;2023-07-20T02:15:02;94852.91;;;21.54;100.00
3102;BME280;1561;42.666;23.392;2023-07-20T02:17:31;94858.88;;;21.42;100.00
3102;BME280;1561;42.666;23.392;2023-07-20T02:20:00;94850.72;;;21.51;100.00
3102;BME280;1561;42.666;23.392;2023-07-20T02:22:30;94867.34;;;21.70;100.00
3102;BME280;1561;42.666;23.392;2023-07-20T02:25:02;94862.72;;;21.52;100.00
3102;BME280;1561;42.666;23.392;2023-07-20T02:27:29;94871.13;;;21.74;100.00
3102;BME280;1561;42.666;23.392;2023-07-20T02:29:56;94858.09;;;21.54;100.00
3102;BME280;1561;42.666;23.392;2023-07-20T02:32:24;94857.31;;;21.60;100.00
3102;BME280;1561;42.666;23.392;2023-07-20T02:34:52;94869.16;;;21.76;100.00
3102;BME280;1561;42.666;23.392;2023-07-20T02:37:23;94870.34;;;21.80;100.00
3102;BME280;1561;42.666;23.392;2023-07-20T02:39:53;94852.94;;;21.87;100.00
3102;BME280;1561;42.666;23.392;2023-07-20T02:42:21;94851.72;;;21.83;100.00
3102;BME280;1561;42.666;23.392;2023-07-20T02:44:50;94841.94;;;21.85;100.00
3102;BME280;1561;42.666;23.392;2023-07-20T02:47:17;94845.94;;;21.74;100.00
3102;BME280;1561;42.666;23.392;2023-07-20T02:49:44;94827.91;;;21.60;100.00
3102;BME280;1561;42.666;23.392;2023-07-20T02:52:11;94826.50;;;21.51;100.00
3102;BME280;1561;42.666;23.392;2023-07-20T02:54:38;94832.72;;;21.63;100.00
3102;BME280;1561;42.666;23.392;2023-07-20T02:57:07;94839.50;;;21.57;100.00
3102;BME280;1561;42.666;23.392;2023-07-20T02:59:34;94832.53;;;21.51;100.00
3102;BME280;1561;42.666;23.392;2023-07-20T03:02:01;94839.69;;;21.30;100.00
3102;BME280;1561;42.666;23.392;2023-07-20T03:04:30;94841.47;;;21.23;100.00
3102;BME280;1561;42.666;23.392;2023-07-20T03:06:58;94843.06;;;21.17;100.00
3102;BME280;1561;42.666;23.392;2023-07-20T03:09:26;94842.44;;;21.09;100.00
3102;BME280;1561;42.666;23.392;2023-07-20T03:11:54;94837.47;;;21.14;100.00
3102;BME280;1561;42.666;23.392;2023-07-20T03:14:23;94835.44;;;21.03;100.00
3102;BME280;1561;42.666;23.392;2023-07-20T03:16:53;94841.69;;;21.41;100.00
3102;BME280;1561;42.666;23.392;2023-07-20T03:19:20;94852.47;;;21.38;100.00
3102;BME280;1561;42.666;23.392;2023-07-20T03:21:50;94851.09;;;21.48;100.00
3102;BME280;1561;42.666;23.392;2023-07-20T03:24:18;94861.13;;;21.58;100.00
3102;BME280;1561;42.666;23.392;2023-07-20T03:26:46;94864.09;;;21.48;100.00
3102;BME280;1561;42.666;23.392;2023-07-20T03:29:15;94846.50;;;21.57;100.00
3102;BME280;1561;42.666;23.392;2023-07-20T03:31:44;94864.16;;;21.94;100.00
3102;BME280;1561;42.666;23.392;2023-07-20T03:34:11;94778.50;;;21.40;100.00
3102;BME280;1561;42.666;23.392;2023-07-20T03:36:39;94862.94;;;21.96;100.00
3102;BME280;1561;42.666;23.392;2023-07-20T03:39:07;94867.53;;;22.01;100.00
3102;BME280;1561;42.666;23.392;2023-07-20T03:41:38;94874.56;;;21.81;100.00
3102;BME280;1561;42.666;23.392;2023-07-20T03:44:06;94869.34;;;21.87;100.00
3102;BME280;1561;42.666;23.392;2023-07-20T03:46:46;94869.75;;;22.04;100.00
3102;BME280;1561;42.666;23.392;2023-07-20T03:49:16;94866.13;;;22.18;100.00
3102;BME280;1561;42.666;23.392;2023-07-20T03:51:43;94866.91;;;22.38;100.00
3102;BME280;1561;42.666;23.392;2023-07-20T03:54:13;94875.28;;;22.33;100.00
3102;BME280;1561;42.666;23.392;2023-07-20T03:56:40;94867.53;;;22.14;100.00
3102;BME280;1561;42.666;23.392;2023-07-20T03:59:08;94843.88;;;22.28;100.00
3102;BME280;1561;42.666;23.392;2023-07-20T04:01:36;94870.25;;;22.64;100.00
3102;BME280;1561;42.666;23.392;2023-07-20T04:04:10;94863.34;;;22.89;100.00
3102;BME280;1561;42.666;23.392;2023-07-20T04:06:37;94880.81;;;23.27;100.00
3102;BME280;1561;42.666;23.392;2023-07-20T04:09:04;94871.75;;;23.67;100.00
3102;BME280;1561;42.666;23.392;2023-07-20T04:11:35;94869.81;;;23.18;100.00
3102;BME280;1561;42.666;23.392;2023-07-20T04:14:09;94867.75;;;23.89;100.00
3102;BME280;1561;42.666;23.392;2023-07-20T04:16:39;94868.00;;;24.54;100.00
3102;BME280;1561;42.666;23.392;2023-07-20T04:19:09;94872.38;;;24.60;100.00
3102;BME280;1561;42.666;23.392;2023-07-20T04:21:39;94867.75;;;24.56;100.00
3102;BME280;1561;42.666;23.392;2023-07-20T04:24:07;94858.84;;;24.99;100.00
3102;BME280;1561;42.666;23.392;2023-07-20T04:26:36;94848.09;;;25.07;100.00
3102;BME280;1561;42.666;23.392;2023-07-20T04:29:03;94856.19;;;24.88;100.00
3102;BME280;1561;42.666;23.392;2023-07-20T04:31:32;94851.19;;;25.16;100.00
3102;BME280;1561;42.666;23.392;2023-07-20T04:34:00;94844.22;;;24.80;100.00
3102;BME280;1561;42.666;23.392;2023-07-20T04:36:30;94850.03;;;25.71;100.00
3102;BME280;1561;42.666;23.392;2023-07-20T04:39:03;94840.44;;;25.24;100.00
3102;BME280;1561;42.666;23.392;2023-07-20T04:41:30;94840.09;;;25.50;100.00
3102;BME280;1561;42.666;23.392;2023-07-20T04:43:57;94841.63;;;26.72;100.00
3102;BME280;1561;42.666;23.392;2023-07-20T04:46:25;94835.28;;;26.34;100.00
3102;BME280;1561;42.666;23.392;2023-07-20T04:48:54;94798.38;;;26.47;100.00
3102;BME280;1561;42.666;23.392;2023-07-20T04:51:21;94831.56;;;26.81;100.00
3102;BME280;1561;42.666;23.392;2023-07-20T04:53:52;94824.97;;;27.62;100.00
3102;BME280;1561;42.666;23.392;2023-07-20T04:56:19;94835.91;;;28.04;100.00
3102;BME280;1561;42.666;23.392;2023-07-20T04:58:51;94817.78;;;28.02;97.17
3102;BME280;1561;42.666;23.392;2023-07-20T05:01:20;94835.75;;;27.33;100.00
3102;BME280;1561;42.666;23.392;2023-07-20T05:03:47;94838.31;;;27.16;100.00
3102;BME280;1561;42.666;23.392;2023-07-20T05:06:15;94827.59;;;27.90;94.71
3102;BME280;1561;42.666;23.392;2023-07-20T05:08:45;94826.94;;;28.00;89.57
3102;BME280;1561;42.666;23.392;2023-07-20T05:11:14;94825.94;;;26.49;99.48
3102;BME280;1561;42.666;23.392;2023-07-20T05:13:44;94833.22;;;26.70;100.00
3102;BME280;1561;42.666;23.392;2023-07-20T05:16:14;94838.28;;;27.00;99.20
3102;BME280;1561;42.666;23.392;2023-07-20T05:18:41;94829.97;;;28.08;89.56
3102;BME280;1561;42.666;23.392;2023-07-20T05:21:08;94845.63;;;28.20;87.57
3102;BME280;1561;42.666;23.392;2023-07-20T05:23:35;94835.31;;;28.35;83.73
3102;BME280;1561;42.666;23.392;2023-07-20T05:26:06;94833.50;;;29.38;74.76
3102;BME280;1561;42.666;23.392;2023-07-20T05:28:35;94818.47;;;29.97;71.55
3102;BME280;1561;42.666;23.392;2023-07-20T05:31:03;94829.91;;;29.01;77.84
3102;BME280;1561;42.666;23.392;2023-07-20T05:33:29;94831.50;;;29.50;74.73
3102;BME280;1561;42.666;23.392;2023-07-20T05:35:58;94833.09;;;29.24;75.30
3102;BME280;1561;42.666;23.392;2023-07-20T05:38:27;94837.06;;;29.27;75.35
3102;BME280;1561;42.666;23.392;2023-07-20T05:40:59;94833.28;;;29.71;72.88
3102;BME280;1561;42.666;23.392;2023-07-20T05:43:29;94832.16;;;31.23;65.80
3102;BME280;1561;42.666;23.392;2023-07-20T05:46:01;94842.97;;;29.66;75.69
3102;BME280;1561;42.666;23.392;2023-07-20T05:48:31;94841.09;;;30.66;67.67
3102;BME280;1561;42.666;23.392;2023-07-20T05:50:59;94852.75;;;29.65;76.47
3102;BME280;1561;42.666;23.392;2023-07-20T05:53:27;94852.34;;;30.51;73.37
3102;BME280;1561;42.666;23.392;2023-07-20T05:55:58;94850.00;;;31.88;64.46
3102;BME280;1561;42.666;23.392;2023-07-20T05:58:25;94853.31;;;31.33;63.97
3102;BME280;1561;42.666;23.392;2023-07-20T06:00:53;94855.28;;;31.01;68.32
3102;BME280;1561;42.666;23.392;2023-07-20T06:03:26;94844.69;;;30.96;67.77
3102;BME280;1561;42.666;23.392;2023-07-20T06:05:59;94833.59;;;30.89;65.69
3102;BME280;1561;42.666;23.392;2023-07-20T06:08:27;94833.34;;;32.32;60.04
3102;BME280;1561;42.666;23.392;2023-07-20T06:10:55;94840.94;;;31.64;62.29
3102;BME280;1561;42.666;23.392;2023-07-20T06:13:25;94842.03;;;32.13;59.66
3102;BME280;1561;42.666;23.392;2023-07-20T06:15:53;94838.63;;;31.77;61.50
3102;BME280;1561;42.666;23.392;2023-07-20T06:18:25;94848.66;;;32.10;58.79
3102;BME280;1561;42.666;23.392;2023-07-20T06:20:52;94843.69;;;29.88;71.02
3102;BME280;1561;42.666;23.392;2023-07-20T06:23:19;94832.41;;;31.22;64.34
3102;BME280;1561;42.666;23.392;2023-07-20T06:25:47;94829.63;;;30.40;70.31
3102;BME280;1561;42.666;23.392;2023-07-20T06:28:15;94822.97;;;31.51;64.12
3102;BME280;1561;42.666;23.392;2023-07-20T06:30:44;94820.09;;;30.81;66.84
3102;BME280;1561;42.666;23.392;2023-07-20T06:33:12;94819.38;;;31.00;65.84
3102;BME280;1561;42.666;23.392;2023-07-20T06:35:42;94816.38;;;32.48;59.99
3102;BME280;1561;42.666;23.392;2023-07-20T06:38:09;94824.69;;;31.05;64.68
3102;BME280;1561;42.666;23.392;2023-07-20T06:40:37;94818.78;;;31.65;64.02
3102;BME280;1561;42.666;23.392;2023-07-20T06:43:05;94808.13;;;30.63;65.09
3102;BME280;1561;42.666;23.392;2023-07-20T06:45:38;94819.72;;;32.74;59.91
3102;BME280;1561;42.666;23.392;2023-07-20T06:48:04;94819.94;;;31.12;66.26
3102;BME280;1561;42.666;23.392;2023-07-20T06:50:35;94733.69;;;31.78;61.02
3102;BME280;1561;42.666;23.392;2023-07-20T06:53:03;94812.66;;;31.39;63.29
3102;BME280;1561;42.666;23.392;2023-07-20T06:55:31;94831.31;;;31.18;67.25
3102;BME280;1561;42.666;23.392;2023-07-20T06:57:59;94827.09;;;32.92;59.66
3102;BME280;1561;42.666;23.392;2023-07-20T07:00:26;94829.34;;;32.35;59.00
3102;BME280;1561;42.666;23.392;2023-07-20T07:02:56;94839.84;;;31.40;64.40
3102;BME280;1561;42.666;23.392;2023-07-20T07:05:24;94842.78;;;32.63;59.53
3102;BME280;1561;42.666;23.392;2023-07-20T07:07:51;94849.88;;;32.93;57.19
3102;BME280;1561;42.666;23.392;2023-07-20T07:10:22;94861.28;;;31.58;63.13
3102;BME280;1561;42.666;23.392;2023-07-20T07:12:50;94797.78;;;30.52;70.30
3102;BME280;1561;42.666;23.392;2023-07-20T07:15:16;94841.63;;;31.19;66.02
3102;BME280;1561;42.666;23.392;2023-07-20T07:17:46;94852.19;;;31.14;68.27
3102;BME280;1561;42.666;23.392;2023-07-20T07:20:13;94867.44;;;31.07;66.49
3102;BME280;1561;42.666;23.392;2023-07-20T07:22:42;94863.47;;;30.53;69.97
3102;BME280;1561;42.666;23.392;2023-07-20T07:25:10;94891.59;;;30.43;74.64
3102;BME280;1561;42.666;23.392;2023-07-20T07:27:39;94895.81;;;31.37;68.05
3102;BME280;1561;42.666;23.392;2023-07-20T07:30:07;94886.34;;;33.11;58.01
3102;BME280;1561;42.666;23.392;2023-07-20T07:32:34;94888.59;;;32.24;60.53
3102;BME280;1561;42.666;23.392;2023-07-20T07:35:02;94887.72;;;33.62;54.54
3102;BME280;1561;42.666;23.392;2023-07-20T07:37:30;94873.75;;;34.28;51.85
3102;BME280;1561;42.666;23.392;2023-07-20T07:39:57;94873.13;;;34.70;50.78
3102;BME280;1561;42.666;23.392;2023-07-20T07:42:24;94869.31;;;34.76;48.93
3102;BME280;1561;42.666;23.392;2023-07-20T07:44:53;94867.84;;;35.59;46.26
3102;BME280;1561;42.666;23.392;2023-07-20T07:47:20;94866.03;;;35.36;46.73
3102;BME280;1561;42.666;23.392;2023-07-20T07:49:47;94874.06;;;34.22;50.43
3102;BME280;1561;42.666;23.392;2023-07-20T07:52:14;94872.53;;;35.02;47.05
3102;BME280;1561;42.666;23.392;2023-07-20T07:54:41;94848.06;;;35.47;46.78
3102;BME280;1561;42.666;23.392;2023-07-20T07:57:08;94822.16;;;35.39;46.71
3102;BME280;1561;42.666;23.392;2023-07-20T07:59:35;94829.25;;;35.01;47.10
3102;BME280;1561;42.666;23.392;2023-07-20T08:02:06;94834.31;;;33.40;49.73
3102;BME280;1561;42.666;23.392;2023-07-20T08:04:33;94811.47;;;33.92;49.30
3102;BME280;1561;42.666;23.392;2023-07-20T08:07:03;94822.97;;;35.71;45.96
3102;BME280;1561;42.666;23.392;2023-07-20T08:09:30;94824.34;;;36.06;44.23
3102;BME280;1561;42.666;23.392;2023-07-20T08:11:57;94851.72;;;35.51;45.62
3102;BME280;1561;42.666;23.392;2023-07-20T08:14:26;94868.63;;;35.97;44.44
3102;BME280;1561;42.666;23.392;2023-07-20T08:16:55;94879.97;;;35.23;45.92
3102;BME280;1561;42.666;23.392;2023-07-20T08:19:26;94863.88;;;36.12;44.96
3102;BME280;1561;42.666;23.392;2023-07-20T08:21:56;94870.16;;;34.09;47.69
3102;BME280;1561;42.666;23.392;2023-07-20T08:24:26;94874.84;;;34.22;49.16
3102;BME280;1561;42.666;23.392;2023-07-20T08:26:53;94886.25;;;33.36;52.94
3102;BME280;1561;42.666;23.392;2023-07-20T08:29:20;94894.09;;;33.61;53.48
3102;BME280;1561;42.666;23.392;2023-07-20T08:31:48;94875.22;;;34.97;51.20
3102;BME280;1561;42.666;23.392;2023-07-20T08:34:20;94861.91;;;34.73;52.03
3102;BME280;1561;42.666;23.392;2023-07-20T08:36:49;94863.88;;;34.34;53.67
3102;BME280;1561;42.666;23.392;2023-07-20T08:39:16;94880.50;;;34.11;52.02
3102;BME280;1561;42.666;23.392;2023-07-20T08:41:44;94871.38;;;33.93;54.57
3102;BME280;1561;42.666;23.392;2023-07-20T08:44:18;94867.03;;;34.07;50.43
3102;BME280;1561;42.666;23.392;2023-07-20T08:46:51;94857.53;;;34.63;47.31
3102;BME280;1561;42.666;23.392;2023-07-20T08:49:19;94865.63;;;34.15;47.25
3102;BME280;1561;42.666;23.392;2023-07-20T08:51:46;94845.53;;;33.70;47.74
3102;BME280;1561;42.666;23.392;2023-07-20T08:54:16;94870.31;;;32.82;47.24
3102;BME280;1561;42.666;23.392;2023-07-20T08:56:45;94868.00;;;33.24;48.40
3102;BME280;1561;42.666;23.392;2023-07-20T08:59:16;94845.28;;;34.67;44.39
3102;BME280;1561;42.666;23.392;2023-07-20T09:01:44;94867.66;;;33.51;45.58
3102;BME280;1561;42.666;23.392;2023-07-20T09:04:12;94854.88;;;35.11;42.61
3102;BME280;1561;42.666;23.392;2023-07-20T09:06:39;94855.09;;;34.67;43.38
3102;BME280;1561;42.666;23.392;2023-07-20T09:09:09;94862.22;;;34.09;43.66
3102;BME280;1561;42.666;23.392;2023-07-20T09:11:38;94848.50;;;34.36;42.61
3102;BME280;1561;42.666;23.392;2023-07-20T09:14:06;94847.59;;;34.17;42.79
3102;BME280;1561;42.666;23.392;2023-07-20T09:16:46;94777.59;;;33.84;42.36
3102;BME280;1561;42.666;23.392;2023-07-20T09:19:15;94854.00;;;33.24;44.37
3102;BME280;1561;42.666;23.392;2023-07-20T09:21:44;94834.75;;;32.98;44.03
3102;BME280;1561;42.666;23.392;2023-07-20T09:24:18;94829.19;;;34.30;43.22
3102;BME280;1561;42.666;23.392;2023-07-20T09:26:49;94834.13;;;34.08;42.90
3102;BME280;1561;42.666;23.392;2023-07-20T09:29:23;94825.47;;;34.26;42.24
3102;BME280;1561;42.666;23.392;2023-07-20T09:31:59;94820.06;;;34.65;41.46
3102;BME280;1561;42.666;23.392;2023-07-20T09:34:29;94812.50;;;34.53;42.08
3102;BME280;1561;42.666;23.392;2023-07-20T09:36:57;94816.13;;;36.80;39.25
3102;BME280;1561;42.666;23.392;2023-07-20T09:39:24;94830.34;;;35.79;39.29
3102;BME280;1561;42.666;23.392;2023-07-20T09:42:00;94824.00;;;34.15;41.46
3102;BME280;1561;42.666;23.392;2023-07-20T09:44:28;94820.78;;;35.41;40.84
3102;BME280;1561;42.666;23.392;2023-07-20T09:46:54;94823.34;;;36.34;38.60
3102;BME280;1561;42.666;23.392;2023-07-20T09:49:22;94820.09;;;36.82;37.49
3102;BME280;1561;42.666;23.392;2023-07-20T09:51:49;94810.00;;;35.70;38.59
3102;BME280;1561;42.666;23.392;2023-07-20T09:54:17;94792.22;;;34.05;41.59
3102;BME280;1561;42.666;23.392;2023-07-20T09:56:45;94801.91;;;35.19;40.60
3102;BME280;1561;42.666;23.392;2023-07-20T09:59:17;94784.34;;;34.81;39.95
3102;BME280;1561;42.666;23.392;2023-07-20T10:01:49;94774.81;;;35.41;38.40
3102;BME280;1561;42.666;23.392;2023-07-20T10:04:23;94783.22;;;35.06;38.89
3102;BME280;1561;42.666;23.392;2023-07-20T10:06:54;94784.31;;;34.00;38.82
3102;BME280;1561;42.666;23.392;2023-07-20T10:09:24;94789.75;;;33.52;38.57
3102;BME280;1561;42.666;23.392;2023-07-20T10:11:54;94800.84;;;31.97;42.06
3102;BME280;1561;42.666;23.392;2023-07-20T10:14:26;94796.69;;;32.84;40.38
3102;BME280;1561;42.666;23.392;2023-07-20T10:16:58;94798.25;;;32.95;40.06
3102;BME280;1561;42.666;23.392;2023-07-20T10:19:34;94800.13;;;32.75;40.70
3102;BME280;1561;42.666;23.392;2023-07-20T10:22:14;94796.50;;;32.61;41.22
3102;BME280;1561;42.666;23.392;2023-07-20T10:24:45;94800.53;;;32.13;43.03
3102;BME280;1561;42.666;23.392;2023-07-20T10:27:15;94807.63;;;33.21;42.19
3102;BME280;1561;42.666;23.392;2023-07-20T10:29:43;94806.25;;;33.39;41.44
3102;BME280;1561;42.666;23.392;2023-07-20T10:32:10;94817.69;;;32.56;43.09
3102;BME280;1561;42.666;23.392;2023-07-20T10:34:37;94810.03;;;33.18;41.82
3102;BME280;1561;42.666;23.392;2023-07-20T10:37:06;94805.97;;;32.87;42.78
3102;BME280;1561;42.666;23.392;2023-07-20T10:39:34;94791.13;;;32.91;42.88
3102;BME280;1561;42.666;23.392;2023-07-20T10:42:01;94801.63;;;32.07;44.16
3102;BME280;1561;42.666;23.392;2023-07-20T10:44:32;94807.34;;;32.69;43.42
3102;BME280;1561;42.666;23.392;2023-07-20T10:47:03;94813.53;;;32.05;43.72
3102;BME280;1561;42.666;23.392;2023-07-20T10:49:33;94801.88;;;32.16;43.86
3102;BME280;1561;42.666;23.392;2023-07-20T10:52:04;94766.44;;;32.17;42.77
3102;BME280;1561;42.666;23.392;2023-07-20T10:54:49;94714.94;;;31.69;43.90
3102;BME280;1561;42.666;23.392;2023-07-20T10:57:27;94751.97;;;31.89;45.71
3102;BME280;1561;42.666;23.392;2023-07-20T11:00:08;94787.56;;;31.47;44.44
3102;BME280;1561;42.666;23.392;2023-07-20T11:02:46;94765.81;;;30.90;44.49
3102;BME280;1561;42.666;23.392;2023-07-20T11:05:35;94755.59;;;32.18;42.77
3102;BME280;1561;42.666;23.392;2023-07-20T11:08:11;94749.59;;;32.76;41.88
3102;BME280;1561;42.666;23.392;2023-07-20T11:10:38;94733.81;;;33.10;42.35
3102;BME280;1561;42.666;23.392;2023-07-20T11:13:22;94730.25;;;33.68;40.50
3102;BME280;1561;42.666;23.392;2023-07-20T11:16:03;94718.75;;;33.82;39.44
3102;BME280;1561;42.666;23.392;2023-07-20T11:18:46;94725.78;;;32.76;41.78
3102;BME280;1561;42.666;23.392;2023-07-20T11:21:14;94727.31;;;33.69;40.82
3102;BME280;1561;42.666;23.392;2023-07-20T11:23:43;94725.78;;;33.63;40.93
3102;BME280;1561;42.666;23.392;2023-07-20T11:26:12;94717.03;;;34.20;40.95
3102;BME280;1561;42.666;23.392;2023-07-20T11:28:42;94701.88;;;34.91;39.77
3102;BME280;1561;42.666;23.392;2023-07-20T11:31:09;94714.06;;;34.26;40.69
3102;BME280;1561;42.666;23.392;2023-07-20T11:33:37;94716.09;;;34.11;42.31
3102;BME280;1561;42.666;23.392;2023-07-20T11:36:08;94699.72;;;34.32;41.20
3102;BME280;1561;42.666;23.392;2023-07-20T11:38:35;94696.00;;;34.28;41.64
3102;BME280;1561;42.666;23.392;2023-07-20T11:41:05;94707.16;;;34.02;42.42
3102;BME280;1561;42.666;23.392;2023-07-20T11:43:32;94694.19;;;34.00;42.92
3102;BME280;1561;42.666;23.392;2023-07-20T11:46:00;94699.38;;;34.39;42.11
3102;BME280;1561;42.666;23.392;2023-07-20T11:48:27;94692.91;;;34.21;42.66
3102;BME280;1561;42.666;23.392;2023-07-20T11:50:55;94683.50;;;34.76;41.73
3102;BME280;1561;42.666;23.392;2023-07-20T11:53:24;94685.75;;;35.06;41.71
3102;BME280;1561;42.666;23.392;2023-07-20T11:55:52;94686.09;;;34.81;41.71
3102;BME280;1561;42.666;23.392;2023-07-20T11:58:20;94685.44;;;34.47;42.75
3102;BME280;1561;42.666;23.392;2023-07-20T12:00:47;94672.13;;;34.28;43.03
3102;BME280;1561;42.666;23.392;2023-07-20T12:03:15;94660.41;;;33.54;44.14
3102;BME280;1561;42.666;23.392;2023-07-20T12:05:42;94673.75;;;34.29;42.96
3102;BME280;1561;42.666;23.392;2023-07-20T12:08:09;94664.13;;;34.33;42.75
3102;BME280;1561;42.666;23.392;2023-07-20T12:10:39;94659.50;;;34.20;42.55
3102;BME280;1561;42.666;23.392;2023-07-20T12:13:10;94666.59;;;34.48;41.50
3102;BME280;1561;42.666;23.392;2023-07-20T12:15:38;94659.50;;;34.20;42.40
3102;BME280;1561;42.666;23.392;2023-07-20T12:18:07;94657.84;;;34.24;42.21
3102;BME280;1561;42.666;23.392;2023-07-20T12:20:35;94655.78;;;34.45;41.46
3102;BME280;1561;42.666;23.392;2023-07-20T12:23:08;94649.50;;;33.89;42.37
3102;BME280;1561;42.666;23.392;2023-07-20T12:25:42;94650.66;;;34.25;41.10
3102;BME280;1561;42.666;23.392;2023-07-20T12:28:11;94650.66;;;34.30;40.68
3102;BME280;1561;42.666;23.392;2023-07-20T12:30:39;94644.72;;;34.14;41.36
3102;BME280;1561;42.666;23.392;2023-07-20T12:33:06;94634.38;;;33.89;39.74
3102;BME280;1561;42.666;23.392;2023-07-20T12:35:35;94649.09;;;34.24;39.89
3102;BME280;1561;42.666;23.392;2023-07-20T12:38:01;94573.78;;;33.78;38.97
3102;BME280;1561;42.666;23.392;2023-07-20T12:40:29;94613.94;;;33.95;39.78
3102;BME280;1561;42.666;23.392;2023-07-20T12:42:58;94639.13;;;34.39;39.29
3102;BME280;1561;42.666;23.392;2023-07-20T12:45:24;94637.81;;;34.37;38.94
3102;BME280;1561;42.666;23.392;2023-07-20T12:47:54;94630.03;;;34.22;38.69
3102;BME280;1561;42.666;23.392;2023-07-20T12:50:23;94629.31;;;33.93;39.41
3102;BME280;1561;42.666;23.392;2023-07-20T12:52:50;94635.34;;;33.98;36.44
3102;BME280;1561;42.666;23.392;2023-07-20T12:55:17;94629.38;;;34.53;36.33
3102;BME280;1561;42.666;23.392;2023-07-20T12:57:46;94620.91;;;34.33;38.18
3102;BME280;1561;42.666;23.392;2023-07-20T13:00:16;94617.06;;;34.81;37.95
3102;BME280;1561;42.666;23.392;2023-07-20T13:02:43;94631.75;;;34.13;36.84
3102;BME280;1561;42.666;23.392;2023-07-20T13:05:10;94634.78;;;34.01;37.97
3102;BME280;1561;42.666;23.392;2023-07-20T13:07:38;94620.88;;;34.09;38.28
3102;BME280;1561;42.666;23.392;2023-07-20T13:10:06;94609.16;;;34.15;38.55
3102;BME280;1561;42.666;23.392;2023-07-20T13:12:34;94630.84;;;33.70;39.27
3102;BME280;1561;42.666;23.392;2023-07-20T13:15:02;94619.00;;;33.63;38.80
3102;BME280;1561;42.666;23.392;2023-07-20T13:17:32;94613.41;;;33.64;39.01
3102;BME280;1561;42.666;23.392;2023-07-20T13:19:59;94623.31;;;34.06;38.63
3102;BME280;1561;42.666;23.392;2023-07-20T13:22:28;94615.50;;;33.96;39.04